sensor_id;sensor_type;location;lat;lon;timestamp;pressure;altitude;pressure_sealevel;temperature;humidity
33280;BME280;20403;43.114;12.434;2023-02-18T00:00:52;100649.69;;;7.29;100.00
33280;BME280;20403;43.114;12.434;2023-02-18T00:03:18;100643.84;;;7.27;100.00
33280;BME280;20403;43.114;12.434;2023-02-18T00:05:43;100647.09;;;7.29;100.00
33280;BME280;20403;43.114;12.434;2023-02-18T00:08:09;100646.13;;;7.05;100.00
33280;BME280;20403;43.114;12.434;2023-02-18T00:10:34;100646.47;;;7.19;100.00
33280;BME280;20403;43.114;12.434;2023-02-18T00:13:00;100643.03;;;7.18;100.00
33280;BME280;20403;43.114;12.434;2023-02-18T00:15:26;100640.13;;;7.21;100.00
33280;BME280;20403;43.114;12.434;2023-02-18T00:17:51;100639.31;;;7.29;100.00
33280;BME280;20403;43.114;12.434;2023-02-18T00:20:16;100639.47;;;7.11;100.00
33280;BME280;20403;43.114;12.434;2023-02-18T00:22:42;100628.91;;;7.04;100.00
33280;BME280;20403;43.114;12.434;2023-02-18T00:25:07;100641.09;;;7.12;100.00
33280;BME280;20403;43.114;12.434;2023-02-18T00:27:32;100642.38;;;7.16;100.00
33280;BME280;20403;43.114;12.434;2023-02-18T00:29:58;100642.06;;;7.19;100.00
33280;BME280;20403;43.114;12.434;2023-02-18T00:32:23;100642.72;;;7.13;100.00
33280;BME280;20403;43.114;12.434;2023-02-18T00:34:49;100638.31;;;7.13;100.00
33280;BME280;20403;43.114;12.434;2023-02-18T00:37:14;100638.81;;;7.17;100.00
33280;BME280;20403;43.114;12.434;2023-02-18T00:39:40;100645.97;;;7.31;100.00
33280;BME280;20403;43.114;12.434;2023-02-18T00:42:05;100642.22;;;7.34;100.00
33280;BME280;20403;43.114;12.434;2023-02-18T00:44:30;100635.25;;;7.10;100.00
33280;BME280;20403;43.114;12.434;2023-02-18T00:46:56;100625.69;;;7.10;100.00
33280;BME280;20403;43.114;12.434;2023-02-18T00:49:21;100630.22;;;7.08;100.00
33280;BME280;20403;43.114;12.434;2023-02-18T00:51:46;100630.72;;;7.04;100.00
33280;BME280;20403;43.114;12.434;2023-02-18T00:54:12;100628.13;;;7.12;100.00
33280;BME280;20403;43.114;12.434;2023-02-18T00:56:37;100630.72;;;6.96;100.00
33280;BME280;20403;43.114;12.434;2023-02-18T00:59:03;100628.41;;;6.92;100.00
33280;BME280;20403;43.114;12.434;2023-02-18T01:01:28;100623.88;;;6.94;100.00
33280;BME280;20403;43.114;12.434;2023-02-18T01:03:53;100620.00;;;6.99;100.00
33280;BME280;20403;43.114;12.434;2023-02-18T01:06:19;100618.38;;;6.98;100.00
33280;BME280;20403;43.114;12.434;2023-02-18T01:08:46;100617.91;;;7.10;100.00
33280;BME280;20403;43.114;12.434;2023-02-18T01:11:12;100615.00;;;7.05;100.00
33280;BME280;20403;43.114;12.434;2023-02-18T01:13:38;100614.19;;;7.05;100.00
33280;BME280;20403;43.114;12.434;2023-02-18T01:16:04;100615.47;;;7.17;100.00
33280;BME280;20403;43.114;12.434;2023-02-18T01:18:29;100618.25;;;7.24;100.00
33280;BME280;20403;43.114;12.434;2023-02-18T01:20:55;100610.75;;;7.04;100.00
33280;BME280;20403;43.114;12.434;2023-02-18T01:23:22;100607.22;;;7.22;100.00
33280;BME280;20403;43.114;12.434;2023-02-18T01:25:47;100608.00;;;7.06;100.00
33280;BME280;20403;43.114;12.434;2023-02-18T01:28:13;100605.06;;;6.92;100.00
33280;BME280;20403;43.114;12.434;2023-02-18T01:30:39;100608.66;;;7.00;100.00
33280;BME280;20403;43.114;12.434;2023-02-18T01:33:05;100611.53;;;6.88;100.00
33280;BME280;20403;43.114;12.434;2023-02-18T01:35:31;100608.34;;;7.03;100.00
33280;BME280;20403;43.114;12.434;2023-02-18T01:37:56;100604.91;;;7.02;100.00
33280;BME280;20403;43.114;12.434;2023-02-18T01:40:26;100599.78;;;7.19;100.00
33280;BME280;20403;43.114;12.434;2023-02-18T01:42:52;100599.09;;;7.00;100.00
33280;BME280;20403;43.114;12.434;2023-02-18T01:50:48;100595.84;;;6.90;100.00
33280;BME280;20403;43.114;12.434;2023-02-18T01:53:17;100598.13;;;7.01;100.00
33280;BME280;20403;43.114;12.434;2023-02-18T01:55:43;100596.34;;;6.93;100.00
33280;BME280;20403;43.114;12.434;2023-02-18T01:58:10;100592.59;;;7.04;100.00
33280;BME280;20403;43.114;12.434;2023-02-18T02:00:36;100595.88;;;6.98;100.00
33280;BME280;20403;43.114;12.434;2023-02-18T02:03:02;100588.69;;;6.84;100.00
33280;BME280;20403;43.114;12.434;2023-02-18T02:05:32;100585.97;;;6.77;100.00
33280;BME280;20403;43.114;12.434;2023-02-18T02:07:59;100587.72;;;6.93;100.00
33280;BME280;20403;43.114;12.434;2023-02-18T02:10:34;100574.78;;;6.85;100.00
33280;BME280;20403;43.114;12.434;2023-02-18T02:13:36;100586.13;;;6.92;100.00
33280;BME280;20403;43.114;12.434;2023-02-18T02:16:08;100583.34;;;6.85;100.00
33280;BME280;20403;43.114;12.434;2023-02-18T02:19:11;100580.25;;;6.73;100.00
33280;BME280;20403;43.114;12.434;2023-02-18T02:27:14;100564.72;;;6.82;100.00
33280;BME280;20403;43.114;12.434;2023-02-18T02:35:20;100556.09;;;6.65;100.00
33280;BME280;20403;43.114;12.434;2023-02-18T02:37:55;100561.13;;;6.66;100.00
33280;BME280;20403;43.114;12.434;2023-02-18T02:46:02;100559.84;;;6.54;100.00
33280;BME280;20403;43.114;12.434;2023-02-18T02:51:29;100540.56;;;6.73;100.00
33280;BME280;20403;43.114;12.434;2023-02-18T02:54:16;100544.47;;;6.77;100.00
33280;BME280;20403;43.114;12.434;2023-02-18T02:56:42;100538.28;;;6.62;100.00
33280;BME280;20403;43.114;12.434;2023-02-18T02:59:15;100533.75;;;6.64;100.00
33280;BME280;20403;43.114;12.434;2023-02-18T03:10:22;100543.63;;;6.60;100.00
33280;BME280;20403;43.114;12.434;2023-02-18T03:18:08;100544.91;;;6.56;100.00
33280;BME280;20403;43.114;12.434;2023-02-18T03:20:44;100539.44;;;6.59;100.00
33280;BME280;20403;43.114;12.434;2023-02-18T03:23:15;100542.78;;;6.51;100.00
33280;BME280;20403;43.114;12.434;2023-02-18T03:25:43;100551.22;;;6.45;100.00
33280;BME280;20403;43.114;12.434;2023-02-18T03:28:19;100549.94;;;6.58;100.00
33280;BME280;20403;43.114;12.434;2023-02-18T03:31:07;100548.19;;;6.66;100.00
33280;BME280;20403;43.114;12.434;2023-02-18T03:33:45;100548.19;;;6.83;100.00
33280;BME280;20403;43.114;12.434;2023-02-18T03:36:12;100546.88;;;6.79;100.00
33280;BME280;20403;43.114;12.434;2023-02-18T03:41:18;100553.50;;;6.65;100.00
33280;BME280;20403;43.114;12.434;2023-02-18T03:43:52;100552.88;;;6.79;100.00
33280;BME280;20403;43.114;12.434;2023-02-18T03:46:20;100543.50;;;6.86;100.00
33280;BME280;20403;43.114;12.434;2023-02-18T03:48:46;100553.22;;;6.76;100.00
33280;BME280;20403;43.114;12.434;2023-02-18T03:51:11;100551.91;;;6.72;100.00
33280;BME280;20403;43.114;12.434;2023-02-18T03:53:37;100549.81;;;6.76;100.00
33280;BME280;20403;43.114;12.434;2023-02-18T03:56:03;100553.06;;;6.78;100.00
33280;BME280;20403;43.114;12.434;2023-02-18T03:58:28;100553.22;;;6.76;100.00
33280;BME280;20403;43.114;12.434;2023-02-18T04:00:53;100550.63;;;6.84;100.00
33280;BME280;20403;43.114;12.434;2023-02-18T04:03:19;100548.22;;;6.91;100.00
33280;BME280;20403;43.114;12.434;2023-02-18T04:05:44;100553.72;;;6.80;100.00
33280;BME280;20403;43.114;12.434;2023-02-18T04:08:09;100549.81;;;6.76;100.00
33280;BME280;20403;43.114;12.434;2023-02-18T04:10:35;100541.72;;;6.70;100.00
33280;BME280;20403;43.114;12.434;2023-02-18T04:13:00;100547.22;;;6.84;100.00
33280;BME280;20403;43.114;12.434;2023-02-18T04:15:26;100544.31;;;6.87;100.00
33280;BME280;20403;43.114;12.434;2023-02-18T04:17:51;100543.84;;;6.91;100.00
33280;BME280;20403;43.114;12.434;2023-02-18T04:20:17;100549.16;;;6.73;100.00
33280;BME280;20403;43.114;12.434;2023-02-18T04:22:43;100541.56;;;6.80;100.00
33280;BME280;20403;43.114;12.434;2023-02-18T04:25:08;100549.66;;;6.77;100.00
33280;BME280;20403;43.114;12.434;2023-02-18T04:27:34;100549.31;;;6.80;100.00
33280;BME280;20403;43.114;12.434;2023-02-18T04:29:59;100537.50;;;6.78;100.00
33280;BME280;20403;43.114;12.434;2023-02-18T04:32:24;100542.19;;;6.74;100.00
33280;BME280;20403;43.114;12.434;2023-02-18T04:34:50;100543.16;;;6.73;100.00
33280;BME280;20403;43.114;12.434;2023-02-18T04:37:15;100539.59;;;6.74;100.00
33280;BME280;20403;43.114;12.434;2023-02-18T04:39:41;100538.94;;;6.72;100.00
33280;BME280;20403;43.114;12.434;2023-02-18T04:42:06;100542.00;;;6.67;100.00
33280;BME280;20403;43.114;12.434;2023-02-18T04:44:34;100543.63;;;6.60;100.00
33280;BME280;20403;43.114;12.434;2023-02-18T04:47:01;100547.03;;;6.61;100.00
33280;BME280;20403;43.114;12.434;2023-02-18T04:49:26;100544.28;;;6.54;100.00
33280;BME280;20403;43.114;12.434;2023-02-18T04:51:51;100548.47;;;6.55;100.00
33280;BME280;20403;43.114;12.434;2023-02-18T04:54:17;100538.91;;;6.56;100.00
33280;BME280;20403;43.114;12.434;2023-02-18T04:56:42;100550.91;;;6.65;100.00
33280;BME280;20403;43.114;12.434;2023-02-18T04:59:08;100545.09;;;6.71;100.00
33280;BME280;20403;43.114;12.434;2023-02-18T05:01:33;100554.00;;;6.77;100.00
33280;BME280;20403;43.114;12.434;2023-02-18T05:03:58;100545.75;;;6.65;100.00
33280;BME280;20403;43.114;12.434;2023-02-18T05:06:24;100544.47;;;6.77;100.00
33280;BME280;20403;43.114;12.434;2023-02-18T05:08:49;100547.38;;;6.90;100.00
33280;BME280;20403;43.114;12.434;2023-02-18T05:11:15;100537.16;;;6.81;100.00
33280;BME280;20403;43.114;12.434;2023-02-18T05:13:40;100538.78;;;6.73;100.00
33280;BME280;20403;43.114;12.434;2023-02-18T05:16:05;100541.53;;;6.64;100.00
33280;BME280;20403;43.114;12.434;2023-02-18T05:18:31;100542.38;;;6.72;100.00
33280;BME280;20403;43.114;12.434;2023-02-18T05:20:56;100538.75;;;6.65;100.00
33280;BME280;20403;43.114;12.434;2023-02-18T05:23:21;100542.66;;;6.69;100.00
33280;BME280;20403;43.114;12.434;2023-02-18T05:25:47;100539.75;;;6.64;100.00
33280;BME280;20403;43.114;12.434;2023-02-18T05:28:12;100532.31;;;6.69;100.00
33280;BME280;20403;43.114;12.434;2023-02-18T05:30:38;100544.16;;;6.80;100.00
33280;BME280;20403;43.114;12.434;2023-02-18T05:33:03;100537.81;;;6.66;100.00
33280;BME280;20403;43.114;12.434;2023-02-18T05:35:29;100536.84;;;6.76;100.00
33280;BME280;20403;43.114;12.434;2023-02-18T05:37:54;100539.13;;;6.70;100.00
33280;BME280;20403;43.114;12.434;2023-02-18T05:40:20;100536.69;;;6.69;100.00
33280;BME280;20403;43.114;12.434;2023-02-18T05:42:45;100542.38;;;6.72;100.00
33280;BME280;20403;43.114;12.434;2023-02-18T05:45:10;100531.00;;;6.73;100.00
33280;BME280;20403;43.114;12.434;2023-02-18T05:47:36;100544.44;;;6.61;100.00
33280;BME280;20403;43.114;12.434;2023-02-18T05:50:02;100533.44;;;6.59;100.00
33280;BME280;20403;43.114;12.434;2023-02-18T05:52:27;100535.69;;;6.62;100.00
33280;BME280;20403;43.114;12.434;2023-02-18T05:54:53;100544.28;;;6.54;100.00
33280;BME280;20403;43.114;12.434;2023-02-18T05:57:18;100549.63;;;6.61;100.00
33280;BME280;20403;43.114;12.434;2023-02-18T05:59:43;100540.88;;;6.70;100.00
33280;BME280;20403;43.114;12.434;2023-02-18T06:02:09;100551.25;;;6.62;100.00
33280;BME280;20403;43.114;12.434;2023-02-18T06:04:34;100543.81;;;6.59;100.00
33280;BME280;20403;43.114;12.434;2023-02-18T06:07:00;100552.84;;;6.63;100.00
33280;BME280;20403;43.114;12.434;2023-02-18T06:09:25;100550.13;;;6.64;100.00
33280;BME280;20403;43.114;12.434;2023-02-18T06:11:51;100549.97;;;6.74;100.00
33280;BME280;20403;43.114;12.434;2023-02-18T06:14:16;100553.69;;;6.71;100.00
33280;BME280;20403;43.114;12.434;2023-02-18T06:16:41;100551.56;;;6.67;100.00
33280;BME280;20403;43.114;12.434;2023-02-18T06:19:07;100555.16;;;6.82;100.00
33280;BME280;20403;43.114;12.434;2023-02-18T06:21:32;100566.38;;;6.91;100.00
33280;BME280;20403;43.114;12.434;2023-02-18T06:23:58;100560.69;;;6.96;100.00
33280;BME280;20403;43.114;12.434;2023-02-18T06:26:23;100553.88;;;6.94;100.00
33280;BME280;20403;43.114;12.434;2023-02-18T06:28:49;100562.28;;;6.88;100.00
33280;BME280;20403;43.114;12.434;2023-02-18T06:31:14;100573.78;;;6.86;100.00
33280;BME280;20403;43.114;12.434;2023-02-18T06:33:40;100564.91;;;6.97;100.00
33280;BME280;20403;43.114;12.434;2023-02-18T06:36:07;100561.50;;;6.96;100.00
33280;BME280;20403;43.114;12.434;2023-02-18T06:38:38;100564.75;;;6.98;100.00
33280;BME280;20403;43.114;12.434;2023-02-18T06:41:03;100559.84;;;6.95;100.00
33280;BME280;20403;43.114;12.434;2023-02-18T06:43:29;100563.44;;;7.02;100.00
33280;BME280;20403;43.114;12.434;2023-02-18T06:45:55;100572.84;;;7.03;100.00
33280;BME280;20403;43.114;12.434;2023-02-18T06:48:21;100571.38;;;7.01;100.00
33280;BME280;20403;43.114;12.434;2023-02-18T06:50:47;100566.03;;;7.10;100.00
33280;BME280;20403;43.114;12.434;2023-02-18T06:53:14;100568.00;;;7.00;100.00
33280;BME280;20403;43.114;12.434;2023-02-18T06:55:41;100569.75;;;7.00;100.00
33280;BME280;20403;43.114;12.434;2023-02-18T06:58:08;100571.53;;;6.99;100.00
33280;BME280;20403;43.114;12.434;2023-02-18T07:00:34;100578.50;;;7.07;100.00
33280;BME280;20403;43.114;12.434;2023-02-18T07:03:00;100577.53;;;7.16;100.00
33280;BME280;20403;43.114;12.434;2023-02-18T07:05:26;100576.72;;;7.24;100.00
33280;BME280;20403;43.114;12.434;2023-02-18T07:07:51;100568.28;;;7.30;100.00
33280;BME280;20403;43.114;12.434;2023-02-18T07:10:17;100574.13;;;7.32;100.00
33280;BME280;20403;43.114;12.434;2023-02-18T07:12:42;100572.66;;;7.38;100.00
33280;BME280;20403;43.114;12.434;2023-02-18T07:15:08;100573.97;;;7.33;100.00
33280;BME280;20403;43.114;12.434;2023-02-18T07:17:34;100569.88;;;7.39;100.00
33280;BME280;20403;43.114;12.434;2023-02-18T07:19:59;100584.31;;;7.42;100.00
33280;BME280;20403;43.114;12.434;2023-02-18T07:22:25;100578.50;;;7.40;100.00
33280;BME280;20403;43.114;12.434;2023-02-18T07:24:51;100577.19;;;7.44;100.00
33280;BME280;20403;43.114;12.434;2023-02-18T07:27:17;100581.56;;;7.43;100.00
33280;BME280;20403;43.114;12.434;2023-02-18T07:29:43;100577.84;;;7.46;100.00
33280;BME280;20403;43.114;12.434;2023-02-18T07:32:11;100577.69;;;7.47;100.00
33280;BME280;20403;43.114;12.434;2023-02-18T07:34:37;100582.03;;;7.55;100.00
33280;BME280;20403;43.114;12.434;2023-02-18T07:37:02;100583.03;;;7.54;100.00
33280;BME280;20403;43.114;12.434;2023-02-18T07:39:38;100595.16;;;7.62;100.00
33280;BME280;20403;43.114;12.434;2023-02-18T07:42:04;100597.28;;;7.66;100.00
33280;BME280;20403;43.114;12.434;2023-02-18T07:44:29;100593.84;;;7.74;100.00
33280;BME280;20403;43.114;12.434;2023-02-18T07:46:55;100587.03;;;7.73;100.00
33280;BME280;20403;43.114;12.434;2023-02-18T07:49:20;100592.22;;;7.81;100.00
33280;BME280;20403;43.114;12.434;2023-02-18T07:51:47;100594.19;;;7.79;100.00
33280;BME280;20403;43.114;12.434;2023-02-18T07:54:12;100593.19;;;7.80;100.00
33280;BME280;20403;43.114;12.434;2023-02-18T07:56:38;100590.44;;;7.82;100.00
33280;BME280;20403;43.114;12.434;2023-02-18T07:59:04;100592.84;;;7.83;100.00
33280;BME280;20403;43.114;12.434;2023-02-18T08:01:30;100597.38;;;7.97;100.00
33280;BME280;20403;43.114;12.434;2023-02-18T08:03:55;100590.38;;;7.98;100.00
33280;BME280;20403;43.114;12.434;2023-02-18T08:06:24;100588.56;;;8.07;100.00
33280;BME280;20403;43.114;12.434;2023-02-18T08:08:50;100592.91;;;8.14;100.00
33280;BME280;20403;43.114;12.434;2023-02-18T08:11:16;100584.78;;;8.17;100.00
33280;BME280;20403;43.114;12.434;2023-02-18T08:13:41;100580.06;;;8.21;100.00
33280;BME280;20403;43.114;12.434;2023-02-18T08:16:08;100596.00;;;8.18;100.00
33280;BME280;20403;43.114;12.434;2023-02-18T08:18:33;100590.09;;;8.24;100.00
33280;BME280;20403;43.114;12.434;2023-02-18T08:20:59;100593.19;;;8.28;100.00
33280;BME280;20403;43.114;12.434;2023-02-18T08:23:24;100590.41;;;8.29;100.00
33280;BME280;20403;43.114;12.434;2023-02-18T08:25:51;100594.00;;;8.28;100.00
33280;BME280;20403;43.114;12.434;2023-02-18T08:28:19;100593.78;;;8.38;100.00
33280;BME280;20403;43.114;12.434;2023-02-18T08:30:45;100606.13;;;8.44;100.00
33280;BME280;20403;43.114;12.434;2023-02-18T08:33:12;100604.13;;;8.54;100.00
33280;BME280;20403;43.114;12.434;2023-02-18T08:35:37;100601.00;;;8.59;100.00
33280;BME280;20403;43.114;12.434;2023-02-18T08:38:03;100600.38;;;8.57;100.00
33280;BME280;20403;43.114;12.434;2023-02-18T08:40:28;100606.56;;;8.56;100.00
33280;BME280;20403;43.114;12.434;2023-02-18T08:42:54;100598.75;;;8.56;100.00
33280;BME280;20403;43.114;12.434;2023-02-18T08:45:19;100604.91;;;8.63;100.00
33280;BME280;20403;43.114;12.434;2023-02-18T08:47:44;100599.69;;;8.63;100.00
33280;BME280;20403;43.114;12.434;2023-02-18T08:50:10;100601.31;;;8.64;100.00
33280;BME280;20403;43.114;12.434;2023-02-18T08:52:35;100607.22;;;8.58;100.00
33280;BME280;20403;43.114;12.434;2023-02-18T08:55:01;100605.41;;;8.58;100.00
33280;BME280;20403;43.114;12.434;2023-02-18T08:57:27;100603.28;;;8.62;100.00
33280;BME280;20403;43.114;12.434;2023-02-18T08:59:53;100599.81;;;8.70;100.00
33280;BME280;20403;43.114;12.434;2023-02-18T09:02:18;100607.97;;;8.67;100.00
33280;BME280;20403;43.114;12.434;2023-02-18T09:04:44;100609.06;;;8.72;100.00
33280;BME280;20403;43.114;12.434;2023-02-18T09:07:09;100613.00;;;8.68;100.00
33280;BME280;20403;43.114;12.434;2023-02-18T09:09:35;100598.38;;;8.67;100.00
33280;BME280;20403;43.114;12.434;2023-02-18T09:12:00;100604.78;;;8.79;100.00
33280;BME280;20403;43.114;12.434;2023-02-18T09:14:26;100603.63;;;8.82;100.00
33280;BME280;20403;43.114;12.434;2023-02-18T09:16:51;100608.97;;;8.89;100.00
33280;BME280;20403;43.114;12.434;2023-02-18T09:19:17;100602.19;;;8.79;100.00
33280;BME280;20403;43.114;12.434;2023-02-18T09:21:43;100604.50;;;8.74;100.00
33280;BME280;20403;43.114;12.434;2023-02-18T09:24:09;100600.59;;;8.78;100.00
33280;BME280;20403;43.114;12.434;2023-02-18T09:26:34;100597.13;;;8.86;100.00
33280;BME280;20403;43.114;12.434;2023-02-18T09:29:00;100600.28;;;8.96;100.00
33280;BME280;20403;43.114;12.434;2023-02-18T09:31:27;100600.53;;;8.87;100.00
33280;BME280;20403;43.114;12.434;2023-02-18T09:33:58;100606.25;;;8.82;100.00
33280;BME280;20403;43.114;12.434;2023-02-18T09:36:24;100603.00;;;8.80;100.00
33280;BME280;20403;43.114;12.434;2023-02-18T09:38:50;100595.44;;;8.93;100.00
33280;BME280;20403;43.114;12.434;2023-02-18T09:43:57;100596.72;;;8.97;100.00
33280;BME280;20403;43.114;12.434;2023-02-18T09:46:36;100594.75;;;8.99;100.00
33280;BME280;20403;43.114;12.434;2023-02-18T09:49:07;100595.56;;;9.00;100.00
33280;BME280;20403;43.114;12.434;2023-02-18T09:51:37;100595.91;;;8.97;100.00
33280;BME280;20403;43.114;12.434;2023-02-18T09:54:03;100594.56;;;9.01;100.00
33280;BME280;20403;43.114;12.434;2023-02-18T09:56:31;100588.78;;;9.14;100.00
33280;BME280;20403;43.114;12.434;2023-02-18T09:58:58;100594.09;;;9.20;100.00
33280;BME280;20403;43.114;12.434;2023-02-18T10:01:33;100589.69;;;9.21;100.00
33280;BME280;20403;43.114;12.434;2023-02-18T10:04:09;100600.56;;;9.24;100.00
33280;BME280;20403;43.114;12.434;2023-02-18T10:06:37;100603.81;;;9.27;100.00
33280;BME280;20403;43.114;12.434;2023-02-18T10:09:08;100607.34;;;9.34;100.00
33280;BME280;20403;43.114;12.434;2023-02-18T10:11:42;100606.34;;;9.35;100.00
33280;BME280;20403;43.114;12.434;2023-02-18T10:14:12;100605.91;;;9.31;100.00
33280;BME280;20403;43.114;12.434;2023-02-18T10:16:38;100603.63;;;9.28;100.00
33280;BME280;20403;43.114;12.434;2023-02-18T10:19:14;100607.66;;;9.31;100.00
33280;BME280;20403;43.114;12.434;2023-02-18T10:21:43;100610.25;;;9.31;100.00
33280;BME280;20403;43.114;12.434;2023-02-18T10:26:37;100608.94;;;9.35;100.00
33280;BME280;20403;43.114;12.434;2023-02-18T10:29:17;100602.41;;;9.39;100.00
33280;BME280;20403;43.114;12.434;2023-02-18T10:37:16;100604.84;;;9.55;100.00
33280;BME280;20403;43.114;12.434;2023-02-18T10:45:23;100587.88;;;9.74;100.00
33280;BME280;20403;43.114;12.434;2023-02-18T10:48:08;100579.47;;;9.87;100.00
33280;BME280;20403;43.114;12.434;2023-02-18T10:50:40;100579.28;;;10.03;100.00
33280;BME280;20403;43.114;12.434;2023-02-18T10:55:41;100566.22;;;10.33;100.00
33280;BME280;20403;43.114;12.434;2023-02-18T10:58:26;100563.69;;;10.40;100.00
33280;BME280;20403;43.114;12.434;2023-02-18T11:00:52;100564.63;;;10.54;100.00
33280;BME280;20403;43.114;12.434;2023-02-18T11:03:23;100555.44;;;10.58;100.00
33280;BME280;20403;43.114;12.434;2023-02-18T11:05:51;100556.31;;;10.65;100.00
33280;BME280;20403;43.114;12.434;2023-02-18T11:08:20;100553.13;;;10.69;100.00
33280;BME280;20403;43.114;12.434;2023-02-18T11:10:47;100551.22;;;10.78;100.00
33280;BME280;20403;43.114;12.434;2023-02-18T11:13:16;100554.38;;;10.73;100.00
33280;BME280;20403;43.114;12.434;2023-02-18T11:18:29;100551.63;;;11.03;100.00
33280;BME280;20403;43.114;12.434;2023-02-18T11:20:59;100551.75;;;11.17;100.00
33280;BME280;20403;43.114;12.434;2023-02-18T11:23:25;100547.22;;;11.32;100.00
33280;BME280;20403;43.114;12.434;2023-02-18T11:25:58;100540.28;;;11.39;100.00
33280;BME280;20403;43.114;12.434;2023-02-18T11:28:29;100538.56;;;11.60;100.00
33280;BME280;20403;43.114;12.434;2023-02-18T11:30:58;100535.22;;;11.72;100.00
33280;BME280;20403;43.114;12.434;2023-02-18T11:33:33;100528.31;;;11.93;100.00
33280;BME280;20403;43.114;12.434;2023-02-18T11:36:11;100519.31;;;12.02;100.00
33280;BME280;20403;43.114;12.434;2023-02-18T11:38:47;100520.53;;;12.06;100.00
33280;BME280;20403;43.114;12.434;2023-02-18T11:41:17;100526.34;;;12.02;100.00
33280;BME280;20403;43.114;12.434;2023-02-18T11:43:49;100510.22;;;11.98;100.00
33280;BME280;20403;43.114;12.434;2023-02-18T11:46:21;100513.84;;;11.90;100.00
33280;BME280;20403;43.114;12.434;2023-02-18T11:48:48;100499.34;;;11.88;100.00
33280;BME280;20403;43.114;12.434;2023-02-18T11:51:17;100500.69;;;11.84;100.00
33280;BME280;20403;43.114;12.434;2023-02-18T11:54:18;100491.81;;;11.78;100.00
33280;BME280;20403;43.114;12.434;2023-02-18T11:56:55;100487.19;;;11.80;100.00
33280;BME280;20403;43.114;12.434;2023-02-18T11:59:21;100487.00;;;11.75;100.00
33280;BME280;20403;43.114;12.434;2023-02-18T12:02:01;100480.75;;;11.69;100.00
33280;BME280;20403;43.114;12.434;2023-02-18T12:04:32;100484.53;;;11.67;100.00
33280;BME280;20403;43.114;12.434;2023-02-18T12:09:39;100477.84;;;11.51;100.00
33280;BME280;20403;43.114;12.434;2023-02-18T12:12:13;100477.00;;;11.44;100.00
33280;BME280;20403;43.114;12.434;2023-02-18T12:14:40;100482.69;;;11.54;100.00
33280;BME280;20403;43.114;12.434;2023-02-18T12:17:33;100482.50;;;11.55;100.00
33280;BME280;20403;43.114;12.434;2023-02-18T12:22:45;100471.59;;;11.52;100.00
33280;BME280;20403;43.114;12.434;2023-02-18T12:26:16;100481.28;;;11.58;100.00
33280;BME280;20403;43.114;12.434;2023-02-18T12:39:31;100455.16;;;11.58;100.00
33280;BME280;20403;43.114;12.434;2023-02-18T13:13:02;100410.63;;;11.86;100.00
33280;BME280;20403;43.114;12.434;2023-02-18T13:15:41;100411.41;;;11.80;100.00
33280;BME280;20403;43.114;12.434;2023-02-18T13:18:12;100412.22;;;11.81;100.00
33280;BME280;20403;43.114;12.434;2023-02-18T13:20:47;100402.59;;;11.81;100.00
33280;BME280;20403;43.114;12.434;2023-02-18T13:23:27;100398.97;;;11.82;100.00
33280;BME280;20403;43.114;12.434;2023-02-18T13:26:05;100394.22;;;11.92;100.00
33280;BME280;20403;43.114;12.434;2023-02-18T13:28:42;100389.97;;;11.91;100.00
33280;BME280;20403;43.114;12.434;2023-02-18T13:31:34;100388.38;;;11.97;100.00
33280;BME280;20403;43.114;12.434;2023-02-18T13:39:14;100385.50;;;11.85;100.00
33280;BME280;20403;43.114;12.434;2023-02-18T13:41:44;100383.06;;;11.77;100.00
33280;BME280;20403;43.114;12.434;2023-02-18T13:46:51;100378.00;;;11.69;100.00
33280;BME280;20403;43.114;12.434;2023-02-18T13:49:21;100382.88;;;11.72;100.00
33280;BME280;20403;43.114;12.434;2023-02-18T13:51:50;100370.19;;;11.75;100.00
33280;BME280;20403;43.114;12.434;2023-02-18T13:54:28;100372.19;;;11.73;100.00
33280;BME280;20403;43.114;12.434;2023-02-18T13:57:04;100369.19;;;11.70;100.00
33280;BME280;20403;43.114;12.434;2023-02-18T14:00:18;100361.53;;;11.68;100.00
33280;BME280;20403;43.114;12.434;2023-02-18T14:12:41;100359.72;;;11.69;100.00
33280;BME280;20403;43.114;12.434;2023-02-18T14:17:48;100355.72;;;11.73;100.00
33280;BME280;20403;43.114;12.434;2023-02-18T14:22:50;100358.94;;;11.75;100.00
33280;BME280;20403;43.114;12.434;2023-02-18T14:27:45;100351.69;;;11.64;100.00
33280;BME280;20403;43.114;12.434;2023-02-18T14:30:19;100353.09;;;11.66;100.00
33280;BME280;20403;43.114;12.434;2023-02-18T14:32:50;100352.31;;;11.72;100.00
33280;BME280;20403;43.114;12.434;2023-02-18T14:35:39;100353.91;;;11.73;100.00
33280;BME280;20403;43.114;12.434;2023-02-18T14:38:32;100346.88;;;11.67;100.00
33280;BME280;20403;43.114;12.434;2023-02-18T14:41:18;100349.69;;;11.66;100.00
33280;BME280;20403;43.114;12.434;2023-02-18T14:49:41;100340.63;;;11.62;100.00
33280;BME280;20403;43.114;12.434;2023-02-18T14:52:21;100340.44;;;11.63;100.00
33280;BME280;20403;43.114;12.434;2023-02-18T14:54:48;100334.59;;;11.61;100.00
33280;BME280;20403;43.114;12.434;2023-02-18T14:57:16;100331.97;;;11.61;100.00
33280;BME280;20403;43.114;12.434;2023-02-18T14:59:44;100333.22;;;11.72;100.00
33280;BME280;20403;43.114;12.434;2023-02-18T15:02:21;100325.78;;;11.75;100.00
33280;BME280;20403;43.114;12.434;2023-02-18T15:04:47;100326.81;;;11.81;100.00
33280;BME280;20403;43.114;12.434;2023-02-18T15:07:17;100329.41;;;11.81;100.00